Time;durP1;ratioP1;P1;durP2;ratioP2;P2;SDS_P1;SDS_P2;PMS_P1;PMS_P2;Temp;Humidity;BMP_temperature;BMP_pressure;BME280_temperature;BME280_humidity;BME280_pressure;Samples;Min_cycle;Max_cycle;Signal;HPM_P1;HPM_P2
2023/04/03 00:00:06;;;;;;;20.77;14.30;;;;;;;5.05;76.04;102863.75;5033935;28;20032;-44
2023/04/03 00:02:32;;;;;;;21.67;14.15;;;;;;;5.03;77.25;102872.16;5047373;28;20021;-47
2023/04/03 00:04:57;;;;;;;20.58;14.43;;;;;;;5.06;76.75;102888.19;5051804;28;20581;-45
2023/04/03 00:07:23;;;;;;;19.88;14.80;;;;;;;5.05;76.59;102880.19;5051867;28;20025;-44
2023/04/03 00:09:48;;;;;;;21.17;14.18;;;;;;;5.03;76.66;102885.88;5051800;28;20374;-45
2023/04/03 00:12:13;;;;;;;20.65;14.15;;;;;;;4.98;76.68;102883.78;5051913;28;20411;-44
2023/04/03 00:14:38;;;;;;;19.67;14.07;;;;;;;4.94;77.11;102884.44;5051775;28;20111;-44
2023/04/03 00:17:04;;;;;;;20.25;14.23;;;;;;;4.95;76.96;102886.13;5051828;28;20103;-44
2023/04/03 00:19:29;;;;;;;19.52;14.25;;;;;;;4.92;76.75;102892.03;5033736;28;20413;-48
2023/04/03 00:21:55;;;;;;;19.27;13.55;;;;;;;4.90;76.61;102888.69;5051742;28;20427;-46
2023/04/03 00:24:20;;;;;;;20.85;14.98;;;;;;;4.90;76.65;102888.69;5051748;28;20049;-43
2023/04/03 00:26:46;;;;;;;20.90;14.45;;;;;;;4.90;76.67;102891.44;5051713;28;20032;-45
2023/04/03 00:29:11;;;;;;;19.92;13.75;;;;;;;4.89;76.65;102893.31;5051673;28;20037;-44
2023/04/03 00:31:36;;;;;;;21.83;14.98;;;;;;;4.87;76.84;102878.97;5051659;28;20128;-44
2023/04/03 00:34:02;;;;;;;19.95;14.18;;;;;;;4.83;76.53;102885.97;5051674;28;20029;-44
2023/04/03 00:36:27;;;;;;;19.83;13.63;;;;;;;4.87;76.84;102891.88;5051682;28;20444;-46
2023/04/03 00:38:52;;;;;;;20.92;14.32;;;;;;;4.43;77.21;102815.69;5051502;28;20431;-44
2023/04/03 00:41:18;;;;;;;20.27;14.90;;;;;;;4.77;76.51;102895.91;5053085;28;20402;-46
2023/04/03 00:43:43;;;;;;;20.42;14.23;;;;;;;4.66;77.60;102880.97;5055611;28;20047;-42
2023/04/03 00:46:08;;;;;;;20.92;14.07;;;;;;;4.65;77.78;102898.50;5055631;28;20079;-43
2023/04/03 00:48:44;;;;;;;21.27;14.30;;;;;;;4.67;77.48;102903.75;5055439;28;20025;-43
2023/04/03 00:51:14;;;;;;;20.23;14.38;;;;;;;4.64;77.39;102905.03;5055472;28;20544;-44
2023/04/03 00:53:50;;;;;;;20.50;14.18;;;;;;;4.58;77.65;102896.81;5055320;28;20120;-43
2023/04/03 00:56:19;;;;;;;21.73;13.93;;;;;;;4.61;77.58;102905.44;5055319;28;20032;-46
2023/04/03 00:58:56;;;;;;;20.15;13.73;;;;;;;4.64;77.91;102910.50;5055369;28;20049;-43
2023/04/03 01:01:24;;;;;;;19.88;13.65;;;;;;;4.58;77.41;102905.03;5055266;28;20036;-44
2023/04/03 01:03:50;;;;;;;20.88;13.85;;;;;;;4.57;77.63;102906.94;5053725;28;20021;-43
2023/04/03 01:29:11;;;;;;;19.52;13.60;;;;;;;4.72;77.28;102914.06;5065288;28;20569;-43
2023/04/03 01:31:54;;;;;;;21.92;13.45;;;;;;;4.81;78.08;102910.88;5074610;28;20135;-42
2023/04/03 01:34:20;;;;;;;19.63;13.70;;;;;;;4.80;77.38;102920.16;5074634;28;20074;-44
2023/04/03 01:36:45;;;;;;;19.73;13.55;;;;;;;4.82;76.97;102909.81;5056694;28;20025;-45
2023/04/03 01:39:11;;;;;;;19.98;13.55;;;;;;;4.86;77.18;102912.13;5060808;28;20039;-47
2023/04/03 01:41:37;;;;;;;19.02;13.00;;;;;;;4.85;76.92;102911.28;5054627;28;20029;-46
2023/04/03 01:44:03;;;;;;;18.75;12.77;;;;;;;4.89;76.79;102914.44;5054383;28;20029;-44
2023/04/03 01:46:29;;;;;;;19.17;13.13;;;;;;;4.86;75.75;102912.13;5054622;28;20062;-44
2023/04/03 01:48:54;;;;;;;19.45;13.38;;;;;;;4.79;76.18;102914.88;5054369;28;20027;-45
2023/04/03 01:51:19;;;;;;;20.25;13.27;;;;;;;4.75;75.92;102910.91;5054403;28;20057;-45
2023/04/03 01:53:45;;;;;;;19.55;13.73;;;;;;;4.68;76.15;102916.41;5053692;28;20811;-44
2023/04/03 01:56:10;;;;;;;19.63;13.48;;;;;;;4.63;76.66;102917.03;5054140;28;20029;-45
2023/04/03 01:58:36;;;;;;;20.88;13.70;;;;;;;4.55;76.28;102910.94;5054055;28;20025;-47
2023/04/03 02:01:02;;;;;;;19.00;13.18;;;;;;;4.56;76.67;102907.16;5031704;28;20037;-44
2023/04/03 02:03:27;;;;;;;19.38;13.00;;;;;;;4.54;76.74;102912.84;5054245;28;20115;-46
2023/04/03 02:05:53;;;;;;;18.88;12.80;;;;;;;4.58;76.61;102919.56;5054012;28;20105;-43
2023/04/03 02:08:18;;;;;;;19.35;12.55;;;;;;;4.58;76.13;102916.84;5054048;28;20029;-45
2023/04/03 02:10:46;;;;;;;18.50;12.70;;;;;;;4.63;76.28;102916.22;5036079;28;20033;-44
2023/04/03 02:13:12;;;;;;;19.83;12.70;;;;;;;4.66;76.41;102919.38;5053896;28;20029;-46
2023/04/03 02:15:39;;;;;;;18.38;12.20;;;;;;;4.63;75.28;102910.72;5054200;28;20094;-43
2023/04/03 02:18:04;;;;;;;17.67;12.02;;;;;;;4.59;75.52;102917.69;5053936;28;20029;-44
2023/04/03 02:20:30;;;;;;;18.35;12.20;;;;;;;4.60;76.14;102933.91;5053777;28;20061;-43
2023/04/03 02:22:55;;;;;;;20.30;12.90;;;;;;;4.59;75.90;102924.00;5035796;28;20032;-44
2023/04/03 02:25:21;;;;;;;19.40;12.30;;;;;;;4.59;75.12;102921.25;5035693;28;20028;-44
2023/04/03 02:27:46;;;;;;;17.50;12.10;;;;;;;4.60;76.18;102928.44;5053518;28;20091;-43
2023/04/03 02:30:12;;;;;;;18.83;11.88;;;;;;;4.64;75.86;102923.34;5053917;28;20025;-43
2023/04/03 02:32:38;;;;;;;18.30;12.02;;;;;;;4.71;75.60;102932.44;5053577;28;20418;-44
2023/04/03 02:35:03;;;;;;;19.00;12.38;;;;;;;4.76;76.15;102926.31;5053274;28;20029;-44
2023/04/03 02:37:29;;;;;;;19.00;11.50;;;;;;;4.68;74.61;102928.19;5035455;28;20029;-44
2023/04/03 02:39:55;;;;;;;17.33;11.93;;;;;;;4.64;75.30;102923.34;5035406;28;20470;-44
2023/04/03 02:42:20;;;;;;;17.52;11.80;;;;;;;4.65;76.00;102936.00;5053260;28;20059;-44
2023/04/03 02:44:46;;;;;;;18.30;11.68;;;;;;;4.66;74.90;102932.22;5053454;28;20024;-44
2023/04/03 02:47:11;;;;;;;18.05;12.23;;;;;;;4.65;75.28;102936.00;5053401;28;20451;-43
2023/04/03 02:49:36;;;;;;;17.85;12.32;;;;;;;4.63;75.20;102941.72;5053195;28;20025;-43
2023/04/03 02:52:02;;;;;;;17.92;11.20;;;;;;;4.63;75.14;102936.25;5035314;28;20028;-44
2023/04/03 02:54:30;;;;;;;17.35;11.23;;;;;;;4.63;74.80;102941.72;5053176;28;20017;-45
2023/04/03 02:56:55;;;;;;;19.20;11.60;;;;;;;4.62;75.07;102945.53;5053068;28;20490;-44
2023/04/03 02:59:21;;;;;;;18.80;11.77;;;;;;;4.57;75.14;102942.59;5052957;28;20036;-44
2023/04/03 03:01:46;;;;;;;19.33;11.75;;;;;;;4.57;75.17;102944.47;5034977;28;20055;-44
2023/04/03 03:04:11;;;;;;;16.83;10.95;;;;;;;4.54;75.23;102943.00;5049386;28;20024;-42
2023/04/03 03:06:37;;;;;;;18.08;12.15;;;;;;;4.49;75.49;102940.91;5051160;28;20029;-44
2023/04/03 03:09:03;;;;;;;17.73;11.77;;;;;;;4.46;75.74;102935.00;5035070;28;20029;-43
2023/04/03 03:11:29;;;;;;;17.95;11.88;;;;;;;4.47;75.34;102950.41;5052817;28;20029;-46
2023/04/03 03:13:54;;;;;;;17.63;11.60;;;;;;;4.44;74.68;102940.69;5052649;28;20025;-47
2023/04/03 03:16:20;;;;;;;16.17;10.60;;;;;;;4.34;75.38;102940.31;5052779;28;20021;-46
2023/04/03 03:18:45;;;;;;;19.15;11.18;;;;;;;4.31;75.97;102924.28;5052524;28;20025;-45
2023/04/03 03:21:11;;;;;;;18.85;11.25;;;;;;;4.41;76.51;102932.06;5052678;28;20078;-46
2023/04/03 03:23:36;;;;;;;18.13;11.60;;;;;;;4.45;77.89;102938.81;5052658;28;20486;-45
2023/04/03 03:26:07;;;;;;;17.40;11.30;;;;;;;4.45;76.73;102936.91;5034577;28;20118;-45
2023/04/03 03:28:33;;;;;;;17.52;11.65;;;;;;;4.53;76.12;102944.88;5052422;28;20161;-46
2023/04/03 03:30:59;;;;;;;18.35;11.05;;;;;;;4.51;75.67;102944.28;5052529;28;20493;-44
2023/04/03 03:33:25;;;;;;;16.27;11.10;;;;;;;4.55;76.82;102955.66;5052638;28;20047;-43
2023/04/03 03:35:51;;;;;;;17.00;11.20;;;;;;;4.51;75.22;102951.66;5052498;28;20458;-43
2023/04/03 03:38:16;;;;;;;17.02;10.50;;;;;;;4.47;74.87;102951.22;5052354;28;20044;-43
2023/04/03 03:40:42;;;;;;;15.90;10.88;;;;;;;4.48;75.21;102958.41;5052181;28;20048;-45
2023/04/03 03:43:07;;;;;;;17.42;11.48;;;;;;;4.41;75.01;102956.72;5051992;28;20033;-45
2023/04/03 03:45:32;;;;;;;16.50;11.20;;;;;;;4.40;74.75;102963.25;5034210;28;20032;-47
2023/04/03 03:47:58;;;;;;;17.40;11.68;;;;;;;4.39;75.16;102961.59;5052301;28;20032;-44
2023/04/03 03:50:23;;;;;;;16.67;11.05;;;;;;;4.40;76.01;102969.59;5052208;28;20043;-43
2023/04/03 03:52:48;;;;;;;16.98;11.15;;;;;;;4.43;75.62;102962.84;5052196;28;20029;-43
2023/04/03 03:55:14;;;;;;;16.65;10.93;;;;;;;4.42;75.10;102964.75;5052183;28;20062;-42
2023/04/03 03:57:39;;;;;;;16.85;11.25;;;;;;;4.41;75.40;102967.69;5052172;28;20035;-43
2023/04/03 04:00:06;;;;;;;20.10;11.77;;;;;;;4.39;74.85;102964.34;5051913;28;20037;-43
2023/04/03 04:02:32;;;;;;;17.60;11.32;;;;;;;4.44;75.52;102972.75;5052042;28;20083;-44
2023/04/03 04:04:57;;;;;;;17.48;11.10;;;;;;;4.45;75.15;102971.69;5047860;28;20033;-44
2023/04/03 04:07:23;;;;;;;17.60;11.60;;;;;;;4.39;75.21;102978.88;5051896;28;20021;-45
2023/04/03 04:09:48;;;;;;;17.50;12.00;;;;;;;4.35;74.71;102974.84;5051870;28;20115;-42
2023/04/03 04:12:14;;;;;;;16.77;11.20;;;;;;;4.36;75.39;102974.66;5051950;28;20033;-43
2023/04/03 04:14:39;;;;;;;18.02;11.07;;;;;;;4.36;75.29;102973.78;5033902;28;20033;-44
2023/04/03 04:17:05;;;;;;;17.45;11.43;;;;;;;4.35;75.07;102977.59;5051716;28;20029;-45
2023/04/03 04:19:30;;;;;;;18.05;11.32;;;;;;;4.39;74.71;102981.59;5051640;28;20071;-44
2023/04/03 04:21:56;;;;;;;17.80;11.35;;;;;;;4.31;74.11;102981.81;5051675;28;20025;-43
2023/04/03 04:24:22;;;;;;;17.48;11.88;;;;;;;4.25;75.05;102982.69;5051626;28;20398;-43
2023/04/03 04:26:48;;;;;;;18.55;11.70;;;;;;;4.25;75.42;102979.94;5052001;28;20470;-43
2023/04/03 04:29:13;;;;;;;16.17;11.30;;;;;;;4.26;75.55;102982.47;5051934;28;20051;-43
2023/04/03 04:31:38;;;;;;;17.15;11.43;;;;;;;4.30;76.34;102980.13;5051739;28;20066;-44
2023/04/03 04:34:04;;;;;;;17.40;11.27;;;;;;;4.28;75.81;102976.75;5051333;28;20363;-45
2023/04/03 04:36:29;;;;;;;18.52;11.10;;;;;;;4.21;74.83;102977.59;5033712;28;20116;-46
2023/04/03 04:38:55;;;;;;;17.27;11.10;;;;;;;4.20;75.79;102972.34;5051415;28;20082;-44
2023/04/03 04:41:22;;;;;;;18.75;10.88;;;;;;;4.16;75.38;102971.06;5051542;28;20125;-43
2023/04/03 04:43:49;;;;;;;16.17;10.85;;;;;;;4.16;76.26;102979.28;5051659;28;20041;-43
2023/04/03 04:46:15;;;;;;;17.33;11.80;;;;;;;4.15;75.24;102972.13;5051915;28;20029;-44
2023/04/03 04:48:40;;;;;;;18.83;11.20;;;;;;;4.17;75.66;102981.81;5051252;28;20413;-44
2023/04/03 04:51:06;;;;;;;16.95;11.00;;;;;;;4.16;75.84;102985.59;5051302;28;20024;-44
2023/04/03 04:53:31;;;;;;;19.63;11.07;;;;;;;4.15;75.54;102989.41;5051405;28;20017;-45
2023/04/03 04:55:57;;;;;;;16.42;10.90;;;;;;;4.12;76.11;102987.09;5051634;28;20040;-43
2023/04/03 04:58:22;;;;;;;17.42;11.05;;;;;;;4.12;76.25;102991.72;5051383;28;20036;-43
2023/04/03 05:00:48;;;;;;;16.48;11.32;;;;;;;4.14;75.69;102998.69;5051311;28;20033;-43
2023/04/03 05:03:13;;;;;;;17.50;11.18;;;;;;;4.12;75.78;102989.81;5051076;28;20043;-43
2023/04/03 05:05:38;;;;;;;17.55;11.43;;;;;;;4.06;74.83;102998.91;5029187;28;20033;-44
2023/04/03 05:08:04;;;;;;;16.45;10.73;;;;;;;3.94;75.40;102993.16;5033280;28;20466;-44
2023/04/03 05:10:30;;;;;;;16.80;10.70;;;;;;;3.86;74.66;102994.22;5051069;28;20083;-44
2023/04/03 05:12:56;;;;;;;16.75;11.18;;;;;;;3.87;76.65;102997.78;5051293;28;20021;-46
2023/04/03 05:15:21;;;;;;;19.02;11.52;;;;;;;3.83;75.60;102988.31;5051164;28;20052;-47
2023/04/03 05:17:47;;;;;;;17.73;11.65;;;;;;;3.88;74.95;102997.59;5051164;28;20154;-44
2023/04/03 05:20:13;;;;;;;18.23;11.43;;;;;;;3.90;75.71;103003.69;5051025;28;20506;-46
2023/04/03 05:22:38;;;;;;;17.38;10.95;;;;;;;3.93;75.89;102994.22;5051213;28;20123;-45
2023/04/03 05:25:04;;;;;;;17.08;11.10;;;;;;;3.90;75.24;102998.22;5050941;28;20021;-44
2023/04/03 05:27:30;;;;;;;17.92;11.38;;;;;;;3.98;76.23;103001.81;5051156;28;20059;-44
2023/04/03 05:29:55;;;;;;;17.50;11.18;;;;;;;4.01;75.40;102998.66;5054852;28;20043;-44
2023/04/03 05:32:22;;;;;;;16.67;11.10;;;;;;;4.04;75.32;103007.31;5054741;28;20025;-46
2023/04/03 05:34:47;;;;;;;15.57;10.73;;;;;;;4.06;74.79;103002.47;5054669;28;20021;-45
2023/04/03 05:37:12;;;;;;;15.63;10.55;;;;;;;4.02;73.98;102989.41;5054630;28;20086;-47
2023/04/03 05:39:40;;;;;;;19.50;11.00;;;;;;;4.05;75.02;103003.50;5054306;28;20402;-46
2023/04/03 05:42:06;;;;;;;14.95;10.57;;;;;;;4.03;74.01;103002.88;5054795;28;20036;-44
2023/04/03 05:44:31;;;;;;;15.80;10.32;;;;;;;4.03;75.57;103005.63;5054195;28;20044;-45
2023/04/03 05:46:56;;;;;;;14.40;10.30;;;;;;;4.01;74.37;103012.34;5054457;28;20031;-44
2023/04/03 05:49:21;;;;;;;18.38;11.07;;;;;;;3.94;73.84;103008.78;5054198;28;20335;-45
2023/04/03 05:51:47;;;;;;;16.70;10.63;;;;;;;3.97;74.35;103019.31;5054376;28;20033;-44
2023/04/03 05:54:24;;;;;;;17.25;10.93;;;;;;;3.99;74.59;103020.78;5054189;28;20060;-44
2023/04/03 05:56:50;;;;;;;17.58;11.05;;;;;;;4.05;74.17;103028.16;5038183;28;20049;-46
2023/04/03 05:59:16;;;;;;;16.45;10.80;;;;;;;4.06;73.20;103027.13;5031898;28;20064;-42
2023/04/03 06:01:41;;;;;;;15.85;10.73;;;;;;;4.00;72.60;103027.09;5032645;28;20041;-46
2023/04/03 06:04:08;;;;;;;14.70;10.30;;;;;;;4.10;76.19;103023.97;5034206;28;20084;-43
2023/04/03 06:06:47;;;;;;;17.33;11.18;;;;;;;4.37;80.63;103027.56;5034126;28;20029;-43
2023/04/03 06:09:13;;;;;;;16.85;11.02;;;;;;;4.61;78.58;103030.72;5034337;28;20043;-43
2023/04/03 06:11:39;;;;;;;18.25;11.20;;;;;;;4.69;77.75;103025.03;5034097;28;20034;-42
2023/04/03 06:14:04;;;;;;;17.45;11.32;;;;;;;4.91;78.74;103028.34;5034051;28;20022;-43
2023/04/03 06:16:29;;;;;;;17.70;11.10;;;;;;;4.98;76.35;103025.59;5034077;28;20061;-42
2023/04/03 06:18:55;;;;;;;17.88;11.10;;;;;;;5.06;76.65;103036.34;5033729;28;20025;-43
2023/04/03 06:21:21;;;;;;;18.67;11.55;;;;;;;5.14;74.01;103030.63;5033831;28;20052;-43
2023/04/03 06:23:46;;;;;;;20.02;11.68;;;;;;;5.26;74.51;103029.97;5032904;28;20061;-42
2023/04/03 06:26:11;;;;;;;18.83;11.25;;;;;;;5.31;73.15;103039.22;5032646;28;20045;-42
2023/04/03 06:28:37;;;;;;;16.95;11.25;;;;;;;5.36;73.44;103032.22;5014892;28;20053;-43
2023/04/03 06:31:02;;;;;;;17.88;11.00;;;;;;;5.33;70.23;103039.00;5012984;28;20851;-42
2023/04/03 06:33:27;;;;;;;18.45;11.10;;;;;;;5.27;71.31;103042.63;5012444;28;20088;-42
2023/04/03 06:35:59;;;;;;;16.20;10.98;;;;;;;5.21;70.80;103046.22;5011938;28;20026;-43
2023/04/03 06:38:25;;;;;;;18.20;11.10;;;;;;;5.21;71.99;103046.22;5010681;28;20034;-42
2023/04/03 06:40:51;;;;;;;16.58;10.95;;;;;;;5.18;70.59;103044.75;5011576;28;20028;-42
2023/04/03 06:43:17;;;;;;;16.63;10.48;;;;;;;5.24;70.66;103046.63;5011901;28;20034;-42
2023/04/03 06:45:42;;;;;;;17.27;11.00;;;;;;;5.27;69.57;103048.13;5011886;28;20030;-43
2023/04/03 06:48:08;;;;;;;19.35;11.00;;;;;;;5.28;70.39;103047.88;5011799;28;20025;-43
2023/04/03 06:50:33;;;;;;;18.92;11.20;;;;;;;5.35;69.87;103060.75;5012470;28;20030;-43
2023/04/03 06:52:58;;;;;;;17.88;10.80;;;;;;;5.40;69.08;103055.47;5012463;28;20388;-42
2023/04/03 06:55:23;;;;;;;17.75;11.35;;;;;;;5.40;69.18;103060.94;5012393;28;20542;-44
2023/04/03 06:57:49;;;;;;;18.98;10.88;;;;;;;5.42;69.53;103056.91;5012264;28;20480;-43
2023/04/03 07:00:16;;;;;;;16.85;10.68;;;;;;;5.43;69.41;103064.09;5012143;28;20030;-43
2023/04/03 07:02:41;;;;;;;15.68;10.60;;;;;;;5.34;68.55;103059.09;5012191;28;20061;-43
2023/04/03 07:05:07;;;;;;;16.38;10.55;;;;;;;5.38;68.59;103072.16;5012225;28;20145;-43
2023/04/03 07:07:33;;;;;;;16.55;10.65;;;;;;;5.37;69.63;103073.22;5012457;28;20030;-43
2023/04/03 07:09:59;;;;;;;16.45;10.63;;;;;;;5.36;68.59;103067.91;5012488;28;20026;-42
2023/04/03 07:12:25;;;;;;;18.33;11.00;;;;;;;5.31;69.09;103068.56;5012139;28;20044;-42
2023/04/03 07:14:50;;;;;;;16.55;10.68;;;;;;;5.23;69.50;103069.66;5010740;28;20030;-43
2023/04/03 07:17:16;;;;;;;16.38;10.65;;;;;;;5.26;68.67;103077.44;5012029;28;20025;-43
2023/04/03 07:19:41;;;;;;;15.45;10.50;;;;;;;5.23;68.60;103085.28;5011671;28;20029;-42
2023/04/03 07:22:07;;;;;;;16.27;10.75;;;;;;;5.25;69.09;103077.66;5011970;28;20029;-43
2023/04/03 07:24:33;;;;;;;17.42;10.63;;;;;;;5.30;69.10;103086.09;5010424;28;20026;-43
2023/04/03 07:26:58;;;;;;;17.55;10.65;;;;;;;5.36;67.91;103084.38;5011885;28;20049;-42
2023/04/03 07:29:23;;;;;;;15.00;10.57;;;;;;;5.35;69.19;103075.31;5047471;28;20075;-42
2023/04/03 07:31:49;;;;;;;17.40;10.65;;;;;;;5.39;67.94;103095.78;5051283;28;20041;-42
2023/04/03 07:34:15;;;;;;;18.45;10.80;;;;;;;5.41;68.72;103077.19;5051296;28;20037;-43
2023/04/03 07:36:41;;;;;;;17.00;10.95;;;;;;;5.51;68.29;103098.72;5051540;28;20052;-42
2023/04/03 07:39:07;;;;;;;19.05;11.00;;;;;;;5.58;67.24;103098.66;5051333;28;20114;-43
2023/04/03 07:41:33;;;;;;;16.05;10.90;;;;;;;5.62;67.91;103099.94;5051294;28;20433;-43
2023/04/03 07:43:58;;;;;;;18.48;10.80;;;;;;;5.61;66.86;103092.75;5050990;28;20041;-42
2023/04/03 07:46:24;;;;;;;18.10;10.80;;;;;;;5.58;66.99;103090.44;5050919;28;20029;-42
2023/04/03 07:48:49;;;;;;;15.98;10.90;;;;;;;5.63;68.07;103104.38;5051002;28;20128;-43
2023/04/03 07:51:15;;;;;;;19.67;11.05;;;;;;;5.69;67.64;103103.50;5050553;28;20148;-42
2023/04/03 07:53:40;;;;;;;17.38;10.80;;;;;;;5.76;67.16;103107.03;5050931;28;20094;-42
2023/04/03 07:56:06;;;;;;;17.35;11.10;;;;;;;5.82;66.64;103108.06;5051267;28;20076;-43
2023/04/03 07:58:32;;;;;;;18.48;11.10;;;;;;;5.91;66.61;103103.19;5051233;28;21979;-41
2023/04/03 08:00:57;;;;;;;17.90;11.10;;;;;;;5.98;66.13;103103.16;5051054;28;20454;-42
2023/04/03 08:03:22;;;;;;;16.45;10.65;;;;;;;6.00;66.44;103101.06;5050930;28;20024;-42
2023/04/03 08:05:49;;;;;;;17.55;10.82;;;;;;;5.98;66.18;103098.50;5051013;28;20035;-42
2023/04/03 08:08:21;;;;;;;15.95;10.98;;;;;;;5.98;66.10;103097.66;5050873;28;20027;-42
2023/04/03 08:10:53;;;;;;;17.25;10.90;;;;;;;5.99;66.78;103102.09;5050811;28;20032;-43
2023/04/03 08:13:19;;;;;;;17.48;10.95;;;;;;;6.04;66.86;103103.16;5050443;28;20050;-42
2023/04/03 08:15:46;;;;;;;17.08;10.65;;;;;;;6.01;65.62;103103.59;5050463;28;20032;-43
2023/04/03 08:18:11;;;;;;;18.67;10.77;;;;;;;6.01;65.06;103105.47;5049647;28;20032;-42
2023/04/03 08:20:38;;;;;;;17.70;10.80;;;;;;;6.08;65.23;103107.13;5050627;28;20376;-43
2023/04/03 08:23:03;;;;;;;16.75;10.75;;;;;;;6.14;64.11;103107.34;5050648;28;20021;-44
2023/04/03 08:25:29;;;;;;;18.08;10.90;;;;;;;6.18;64.53;103106.69;5050519;28;20033;-42
2023/04/03 08:27:55;;;;;;;17.77;11.38;;;;;;;6.27;64.44;103111.91;5031383;28;20410;-41
2023/04/03 08:30:20;;;;;;;16.95;10.88;;;;;;;6.35;62.53;103115.22;5048614;28;20033;-42
2023/04/03 08:32:45;;;;;;;16.75;10.48;;;;;;;6.48;60.44;103105.19;5048590;28;20090;-42
2023/04/03 08:35:11;;;;;;;16.48;11.00;;;;;;;6.49;61.11;103109.63;5048665;28;20051;-42
2023/04/03 08:37:37;;;;;;;16.83;10.80;;;;;;;6.51;61.29;103113.00;5030993;28;20491;-41
2023/04/03 08:40:05;;;;;;;15.73;10.35;;;;;;;6.47;59.64;103120.00;5048358;28;20029;-42
2023/04/03 08:42:44;;;;;;;16.25;10.70;;;;;;;6.46;61.02;103104.56;5049113;28;20033;-42
2023/04/03 08:45:15;;;;;;;16.88;10.90;;;;;;;6.51;61.08;103115.75;5050596;28;20025;-43
2023/04/03 08:47:56;;;;;;;15.18;10.52;;;;;;;6.49;60.35;103120.63;5050695;28;20034;-42
2023/04/03 08:50:29;;;;;;;17.63;10.48;;;;;;;6.53;59.43;103117.22;5050601;28;20028;-42
2023/04/03 08:53:01;;;;;;;16.33;10.60;;;;;;;6.57;58.12;103114.88;5050697;28;20037;-42
2023/04/03 08:55:27;;;;;;;15.45;10.50;;;;;;;6.55;56.38;103111.50;5032330;28;20375;-42
2023/04/03 08:58:04;;;;;;;15.52;10.60;;;;;;;6.54;58.24;103118.06;5050576;28;20025;-41
2023/04/03 09:00:41;;;;;;;14.60;10.32;;;;;;;6.70;57.23;103120.28;5050467;28;20072;-41
2023/04/03 09:03:12;;;;;;;16.60;10.63;;;;;;;6.79;56.37;103120.81;5051479;28;20033;-42
2023/04/03 09:05:38;;;;;;;16.45;10.60;;;;;;;6.92;56.87;103122.59;5054132;28;20021;-42
2023/04/03 09:08:19;;;;;;;16.17;10.25;;;;;;;6.91;53.18;103125.59;5054050;28;20082;-42
2023/04/03 09:10:44;;;;;;;17.15;10.80;;;;;;;6.96;54.28;103125.75;5053977;28;20033;-41
2023/04/03 09:13:41;;;;;;;16.17;10.60;;;;;;;6.99;52.69;103125.31;5053857;28;20047;-41
2023/04/03 09:16:36;;;;;;;15.07;10.20;;;;;;;7.04;52.69;103130.97;5053835;28;20032;-41
2023/04/03 09:19:19;;;;;;;16.02;10.50;;;;;;;7.05;52.57;103118.06;5002904;28;20049;-41
2023/04/03 09:21:45;;;;;;;15.27;10.13;;;;;;;7.13;52.67;103123.28;5053839;28;20374;-42
2023/04/03 09:24:13;;;;;;;17.05;9.95;;;;;;;7.15;51.28;103124.72;5053616;28;20024;-41
2023/04/03 09:26:45;;;;;;;12.77;9.70;;;;;;;7.30;54.06;103120.78;5053568;28;20074;-41
2023/04/03 09:29:21;;;;;;;16.35;10.40;;;;;;;7.27;49.15;103132.25;5058401;28;20121;-42
2023/04/03 09:31:48;;;;;;;14.65;9.88;;;;;;;7.36;49.77;103121.78;5073575;28;20591;-43
2023/04/03 09:34:26;;;;;;;16.45;9.95;;;;;;;7.43;47.34;103120.63;5073478;28;20375;-43
2023/04/03 09:36:55;;;;;;;14.00;9.65;;;;;;;7.42;47.01;103124.44;5073379;28;20112;-41
2023/04/03 09:39:24;;;;;;;13.07;9.88;;;;;;;7.42;46.36;103123.63;5073624;28;20040;-41
2023/04/03 09:42:04;;;;;;;13.65;10.20;;;;;;;7.44;46.42;103103.03;5073616;28;20040;-41
2023/04/03 09:44:33;;;;;;;13.40;9.90;;;;;;;7.51;43.57;103113.16;5073225;28;20032;-42
2023/04/03 09:46:58;;;;;;;13.27;9.82;;;;;;;7.35;43.28;103079.63;5073343;28;20195;-41
2023/04/03 09:49:24;;;;;;;13.70;9.90;;;;;;;7.60;46.30;103103.50;5073014;28;20131;-42
2023/04/03 09:51:49;;;;;;;12.02;9.80;;;;;;;7.67;44.16;103100.63;5073201;28;20493;-42
2023/04/03 09:54:40;;;;;;;12.55;9.70;;;;;;;7.69;46.04;103096.59;5072926;28;20024;-43
2023/04/03 09:57:12;;;;;;;13.32;9.65;;;;;;;7.68;43.97;103097.69;5072966;28;20036;-41
2023/04/03 09:59:58;;;;;;;13.75;9.80;;;;;;;7.71;44.84;103088.09;5072828;28;20029;-42
2023/04/03 10:02:42;;;;;;;13.15;9.80;;;;;;;7.85;46.03;103103.38;5072945;28;20029;-42
2023/04/03 10:05:33;;;;;;;13.30;9.32;;;;;;;7.94;46.02;103093.72;5072879;28;20078;-42
2023/04/03 10:08:09;;;;;;;11.38;9.27;;;;;;;7.94;44.75;103081.84;5072841;28;20416;-42
2023/04/03 10:10:34;;;;;;;11.80;9.43;;;;;;;8.00;43.61;103082.84;5072773;28;20032;-41
2023/04/03 10:13:18;;;;;;;13.00;9.77;;;;;;;8.03;42.86;103085.13;5072525;28;20028;-42
2023/04/03 10:15:53;;;;;;;13.57;9.73;;;;;;;8.03;41.70;103083.22;5072548;28;20032;-42
2023/04/03 10:18:56;;;;;;;10.60;9.38;;;;;;;8.04;44.40;103089.56;5054264;28;20086;-41
2023/04/03 10:21:45;;;;;;;12.98;9.70;;;;;;;8.10;43.63;103085.88;5072325;28;20574;-42
2023/04/03 10:24:19;;;;;;;12.90;9.80;;;;;;;8.09;40.47;103082.25;5072401;28;20036;-41
2023/04/03 10:26:55;;;;;;;12.40;9.45;;;;;;;8.14;39.34;103080.72;5072640;28;20040;-43
2023/04/03 10:29:31;;;;;;;12.95;9.63;;;;;;;8.14;39.04;103075.22;5072868;28;20052;-42
2023/04/03 10:32:27;;;;;;;12.55;9.90;;;;;;;8.16;40.60;103071.16;5072702;28;20029;-42
2023/04/03 10:35:10;;;;;;;12.80;9.77;;;;;;;8.17;40.46;103048.00;5072432;28;20109;-42
2023/04/03 10:37:44;;;;;;;12.90;10.18;;;;;;;8.17;39.44;103050.78;5054065;28;20029;-42
2023/04/03 10:40:22;;;;;;;;;;;;;;;8.24;42.54;103051.50;5072645;28;20024;-43
2023/04/03 10:43:08;;;;;;;12.77;9.80;;;;;;;8.21;41.62;103038.22;5066465;28;19931;-43
2023/04/03 10:46:06;;;;;;;14.05;9.88;;;;;;;8.13;41.72;103021.97;5053377;28;20029;-45
2023/04/03 10:48:31;;;;;;;12.57;9.90;;;;;;;8.38;42.03;103043.84;5053446;28;20065;-42
2023/04/03 10:51:18;;;;;;;13.05;9.73;;;;;;;8.37;39.35;103036.66;5053334;28;20130;-42
2023/04/03 10:53:52;;;;;;;13.27;9.73;;;;;;;8.36;39.36;103039.66;5043389;28;20036;-43
2023/04/03 10:56:32;;;;;;;13.13;9.57;;;;;;;8.43;42.06;103027.44;5031725;28;20109;-41
2023/04/03 10:59:13;;;;;;;14.10;9.80;;;;;;;8.46;40.81;103025.28;5031753;28;20121;-43
2023/04/03 11:01:42;;;;;;;11.93;9.50;;;;;;;8.60;44.25;103037.81;5031915;28;20045;-41
2023/04/03 11:04:10;;;;;;;12.90;9.40;;;;;;;8.48;39.34;103021.25;5031767;28;20119;-42
2023/04/03 11:06:40;;;;;;;12.20;9.45;;;;;;;8.56;41.36;103018.13;5044937;28;20020;-42
2023/04/03 11:09:21;;;;;;;13.10;9.75;;;;;;;8.57;41.59;103028.09;5071761;28;20032;-41
2023/04/03 11:11:49;;;;;;;12.32;9.63;;;;;;;8.56;39.33;103026.41;5053706;28;20027;-42
2023/04/03 11:14:34;;;;;;;12.65;9.57;;;;;;;8.57;40.11;103032.75;5071427;28;20029;-41
2023/04/03 11:17:31;;;;;;;13.35;9.70;;;;;;;8.58;40.46;103023.41;5071362;28;20033;-42
2023/04/03 11:20:18;;;;;;;12.32;9.63;;;;;;;8.52;39.33;103019.69;5071481;28;20028;-42
2023/04/03 11:22:50;;;;;;;11.82;9.27;;;;;;;8.59;40.25;103033.38;5071758;28;20035;-42
2023/04/03 11:25:24;;;;;;;10.73;9.20;;;;;;;8.55;37.88;103023.88;5070678;28;20044;-41
2023/04/03 11:28:12;;;;;;;11.80;9.20;;;;;;;8.55;39.72;103019.22;5052965;28;20069;-42
2023/04/03 11:30:47;;;;;;;10.95;9.00;;;;;;;8.56;40.21;103012.63;5071025;28;20028;-43
2023/04/03 11:33:33;;;;;;;12.55;9.25;;;;;;;8.60;40.63;103004.69;5070882;28;20135;-43
2023/04/03 11:36:18;;;;;;;11.70;9.40;;;;;;;8.62;40.37;103001.69;5071020;28;20032;-42
2023/04/03 11:38:47;;;;;;;11.27;9.23;;;;;;;8.68;41.68;103000.75;5070502;28;20025;-43
2023/04/03 11:41:13;;;;;;;12.55;9.18;;;;;;;8.70;40.05;103006.84;5052678;28;20056;-44
2023/04/03 11:44:25;;;;;;;13.27;9.50;;;;;;;8.78;41.91;103006.50;5070380;28;20517;-44
2023/04/03 11:46:59;;;;;;;13.60;9.45;;;;;;;8.79;40.69;102996.28;5070960;28;20040;-42
2023/04/03 11:49:56;;;;;;;11.93;9.38;;;;;;;8.83;40.36;102992.81;5068742;28;20394;-43